sensor_id;sensor_type;location;lat;lon;timestamp;pressure;altitude;pressure_sealevel;temperature;humidity
31183;BME280;17813;0.000;0.000;2023-03-20T00:02:10;99486.78;;;9.43;81.24
31183;BME280;17813;0.000;0.000;2023-03-20T00:04:44;99493.88;;;9.42;81.31
31183;BME280;17813;0.000;0.000;2023-03-20T00:07:11;99494.56;;;9.46;81.00
31183;BME280;17813;0.000;0.000;2023-03-20T00:09:39;99499.84;;;9.46;81.31
31183;BME280;17813;0.000;0.000;2023-03-20T00:12:08;99493.59;;;9.47;81.97
31183;BME280;17813;0.000;0.000;2023-03-20T00:14:36;99495.41;;;9.46;81.64
31183;BME280;17813;0.000;0.000;2023-03-20T00:17:09;99496.69;;;9.39;81.12
31183;BME280;17813;0.000;0.000;2023-03-20T00:19:37;99493.28;;;9.37;81.61
31183;BME280;17813;0.000;0.000;2023-03-20T00:22:04;99492.44;;;9.37;81.88
31183;BME280;17813;0.000;0.000;2023-03-20T00:24:30;99492.34;;;9.38;81.58
31183;BME280;17813;0.000;0.000;2023-03-20T00:26:58;99486.09;;;9.39;81.69
31183;BME280;17813;0.000;0.000;2023-03-20T00:29:26;99495.66;;;9.42;81.49
31183;BME280;17813;0.000;0.000;2023-03-20T00:31:55;99487.63;;;9.43;81.27
31183;BME280;17813;0.000;0.000;2023-03-20T00:34:24;99485.06;;;9.42;81.64
31183;BME280;17813;0.000;0.000;2023-03-20T00:36:53;99485.16;;;9.40;81.42
31183;BME280;17813;0.000;0.000;2023-03-20T00:39:22;99485.34;;;9.37;81.53
31183;BME280;17813;0.000;0.000;2023-03-20T00:41:53;99479.19;;;9.37;81.82
31183;BME280;17813;0.000;0.000;2023-03-20T00:44:47;99483.28;;;9.26;81.60
31183;BME280;17813;0.000;0.000;2023-03-20T00:47:18;99485.78;;;9.29;81.98
31183;BME280;17813;0.000;0.000;2023-03-20T00:49:47;99481.16;;;9.33;82.14
31183;BME280;17813;0.000;0.000;2023-03-20T00:52:17;99479.28;;;9.35;81.17
31183;BME280;17813;0.000;0.000;2023-03-20T00:54:44;99477.31;;;9.39;81.55
31183;BME280;17813;0.000;0.000;2023-03-20T00:57:13;99475.50;;;9.39;81.99
31183;BME280;17813;0.000;0.000;2023-03-20T01:02:31;99484.22;;;9.41;81.76
31183;BME280;17813;0.000;0.000;2023-03-20T01:04:58;99481.56;;;9.41;81.07
31183;BME280;17813;0.000;0.000;2023-03-20T01:07:26;99489.53;;;9.41;81.87
31183;BME280;17813;0.000;0.000;2023-03-20T01:09:53;99485.06;;;9.42;81.50
31183;BME280;17813;0.000;0.000;2023-03-20T01:12:20;99478.94;;;9.41;80.88
31183;BME280;17813;0.000;0.000;2023-03-20T01:14:51;99484.66;;;9.33;81.86
31183;BME280;17813;0.000;0.000;2023-03-20T01:17:20;99481.31;;;9.30;82.25
31183;BME280;17813;0.000;0.000;2023-03-20T01:19:48;99478.84;;;9.27;82.64
31183;BME280;17813;0.000;0.000;2023-03-20T01:22:15;99486.72;;;9.28;82.22
31183;BME280;17813;0.000;0.000;2023-03-20T01:24:45;99484.25;;;9.25;82.30
31183;BME280;17813;0.000;0.000;2023-03-20T01:27:18;99477.50;;;9.20;81.68
31183;BME280;17813;0.000;0.000;2023-03-20T01:29:45;99486.47;;;9.17;82.06
31183;BME280;17813;0.000;0.000;2023-03-20T01:32:17;99488.50;;;9.12;81.82
31183;BME280;17813;0.000;0.000;2023-03-20T01:34:44;99485.25;;;9.07;82.19
31183;BME280;17813;0.000;0.000;2023-03-20T01:37:16;99488.41;;;8.98;82.15
31183;BME280;17813;0.000;0.000;2023-03-20T01:39:43;99490.53;;;8.91;81.89
31183;BME280;17813;0.000;0.000;2023-03-20T01:42:13;99493.09;;;8.77;81.96
31183;BME280;17813;0.000;0.000;2023-03-20T01:44:41;99489.41;;;8.64;82.25
31183;BME280;17813;0.000;0.000;2023-03-20T01:47:20;99505.38;;;8.45;82.32
31183;BME280;17813;0.000;0.000;2023-03-20T01:50:27;99508.16;;;8.25;82.28
31183;BME280;17813;0.000;0.000;2023-03-20T01:53:23;99511.75;;;8.06;83.11
31183;BME280;17813;0.000;0.000;2023-03-20T01:56:06;99508.97;;;7.92;84.78
31183;BME280;17813;0.000;0.000;2023-03-20T01:58:40;99511.69;;;7.91;84.34
31183;BME280;17813;0.000;0.000;2023-03-20T02:01:11;99517.25;;;7.85;84.07
31183;BME280;17813;0.000;0.000;2023-03-20T02:03:43;99505.19;;;7.79;84.02
31183;BME280;17813;0.000;0.000;2023-03-20T02:06:11;99511.47;;;7.77;84.27
31183;BME280;17813;0.000;0.000;2023-03-20T02:08:48;99506.50;;;7.70;84.51
31183;BME280;17813;0.000;0.000;2023-03-20T02:11:18;99509.22;;;7.69;84.55
31183;BME280;17813;0.000;0.000;2023-03-20T02:13:46;99510.16;;;7.68;84.59
31183;BME280;17813;0.000;0.000;2023-03-20T02:16:15;99506.03;;;7.62;84.80
31183;BME280;17813;0.000;0.000;2023-03-20T02:18:44;99505.31;;;7.59;85.17
31183;BME280;17813;0.000;0.000;2023-03-20T02:26:53;99511.44;;;7.59;85.65
31183;BME280;17813;0.000;0.000;2023-03-20T02:35:20;99511.97;;;7.49;86.04
31183;BME280;17813;0.000;0.000;2023-03-20T02:38:03;99521.38;;;7.54;86.55
31183;BME280;17813;0.000;0.000;2023-03-20T02:43:41;99505.84;;;7.48;86.38
31183;BME280;17813;0.000;0.000;2023-03-20T02:46:35;99510.94;;;7.34;85.60
31183;BME280;17813;0.000;0.000;2023-03-20T02:49:45;99506.03;;;7.07;86.26
31183;BME280;17813;0.000;0.000;2023-03-20T02:55:29;99505.78;;;6.56;88.31
31183;BME280;17813;0.000;0.000;2023-03-20T02:58:21;99506.63;;;6.37;87.95
31183;BME280;17813;0.000;0.000;2023-03-20T03:01:01;99514.00;;;6.29;89.25
31183;BME280;17813;0.000;0.000;2023-03-20T03:03:46;99508.72;;;6.29;89.54
31183;BME280;17813;0.000;0.000;2023-03-20T03:06:33;99502.16;;;6.19;89.67
31183;BME280;17813;0.000;0.000;2023-03-20T03:09:04;99507.88;;;6.29;89.42
31183;BME280;17813;0.000;0.000;2023-03-20T03:11:37;99507.16;;;6.25;88.19
31183;BME280;17813;0.000;0.000;2023-03-20T03:14:07;99510.00;;;6.21;88.12
31183;BME280;17813;0.000;0.000;2023-03-20T03:16:40;99515.59;;;6.13;87.98
31183;BME280;17813;0.000;0.000;2023-03-20T03:19:14;99512.94;;;6.13;88.56
31183;BME280;17813;0.000;0.000;2023-03-20T03:21:46;99515.66;;;6.11;88.63
31183;BME280;17813;0.000;0.000;2023-03-20T03:24:32;99525.31;;;6.11;88.32
31183;BME280;17813;0.000;0.000;2023-03-20T03:27:03;99520.91;;;6.11;88.45
31183;BME280;17813;0.000;0.000;2023-03-20T03:29:35;99513.69;;;6.17;88.53
31183;BME280;17813;0.000;0.000;2023-03-20T03:32:06;99514.34;;;6.22;88.47
31183;BME280;17813;0.000;0.000;2023-03-20T03:34:35;99517.75;;;6.24;88.12
31183;BME280;17813;0.000;0.000;2023-03-20T03:37:12;99521.25;;;6.24;88.61
31183;BME280;17813;0.000;0.000;2023-03-20T03:45:48;99516.97;;;5.79;88.38
31183;BME280;17813;0.000;0.000;2023-03-20T03:48:30;99510.75;;;5.60;88.88
31183;BME280;17813;0.000;0.000;2023-03-20T03:51:08;99513.75;;;5.51;89.51
31183;BME280;17813;0.000;0.000;2023-03-20T03:53:45;99515.72;;;5.46;89.33
31183;BME280;17813;0.000;0.000;2023-03-20T03:56:17;99522.75;;;5.45;88.96
31183;BME280;17813;0.000;0.000;2023-03-20T03:58:52;99507.34;;;5.36;89.33
31183;BME280;17813;0.000;0.000;2023-03-20T04:01:22;99518.72;;;5.37;89.38
31183;BME280;17813;0.000;0.000;2023-03-20T04:03:54;99522.34;;;5.34;89.20
31183;BME280;17813;0.000;0.000;2023-03-20T04:06:22;99523.44;;;5.29;89.41
31183;BME280;17813;0.000;0.000;2023-03-20T04:08:51;99524.22;;;5.31;89.85
31183;BME280;17813;0.000;0.000;2023-03-20T04:11:21;99527.47;;;5.37;89.48
31183;BME280;17813;0.000;0.000;2023-03-20T04:13:54;99528.63;;;5.52;88.94
31183;BME280;17813;0.000;0.000;2023-03-20T04:16:23;99529.13;;;5.62;88.57
31183;BME280;17813;0.000;0.000;2023-03-20T04:18:50;99533.03;;;5.73;89.25
31183;BME280;17813;0.000;0.000;2023-03-20T04:21:17;99529.72;;;5.90;89.28
31183;BME280;17813;0.000;0.000;2023-03-20T04:23:45;99536.97;;;6.05;88.30
31183;BME280;17813;0.000;0.000;2023-03-20T04:26:12;99541.59;;;6.21;88.25
31183;BME280;17813;0.000;0.000;2023-03-20T04:28:39;99540.84;;;6.37;88.02
31183;BME280;17813;0.000;0.000;2023-03-20T04:31:06;99534.13;;;6.51;87.33
31183;BME280;17813;0.000;0.000;2023-03-20T04:33:33;99543.13;;;6.65;87.25
31183;BME280;17813;0.000;0.000;2023-03-20T04:36:00;99548.25;;;6.68;87.32
31183;BME280;17813;0.000;0.000;2023-03-20T04:38:27;99544.00;;;6.66;87.78
31183;BME280;17813;0.000;0.000;2023-03-20T04:40:54;99552.16;;;6.60;87.68
31183;BME280;17813;0.000;0.000;2023-03-20T04:43:20;99559.16;;;6.61;88.14
31183;BME280;17813;0.000;0.000;2023-03-20T04:45:48;99560.00;;;6.61;87.13
31183;BME280;17813;0.000;0.000;2023-03-20T04:48:15;99565.47;;;6.57;87.30
31183;BME280;17813;0.000;0.000;2023-03-20T04:50:41;99565.63;;;6.54;87.50
31183;BME280;17813;0.000;0.000;2023-03-20T04:53:08;99558.56;;;6.54;87.57
31183;BME280;17813;0.000;0.000;2023-03-20T04:55:35;99563.38;;;6.44;88.29
31183;BME280;17813;0.000;0.000;2023-03-20T04:58:02;99565.81;;;6.49;88.27
31183;BME280;17813;0.000;0.000;2023-03-20T05:00:29;99563.63;;;6.59;87.94
31183;BME280;17813;0.000;0.000;2023-03-20T05:02:56;99580.38;;;6.58;88.00
31183;BME280;17813;0.000;0.000;2023-03-20T05:05:23;99580.22;;;6.61;87.95
31183;BME280;17813;0.000;0.000;2023-03-20T05:07:51;99575.75;;;6.63;87.72
31183;BME280;17813;0.000;0.000;2023-03-20T05:10:19;99577.88;;;6.55;88.40
31183;BME280;17813;0.000;0.000;2023-03-20T05:12:46;99579.44;;;6.59;89.08
31183;BME280;17813;0.000;0.000;2023-03-20T05:15:13;99574.69;;;6.67;88.20
31183;BME280;17813;0.000;0.000;2023-03-20T05:17:46;99577.19;;;6.70;88.26
31183;BME280;17813;0.000;0.000;2023-03-20T05:20:15;99577.31;;;6.67;88.78
31183;BME280;17813;0.000;0.000;2023-03-20T05:22:42;99585.88;;;6.72;88.97
31183;BME280;17813;0.000;0.000;2023-03-20T05:25:09;99581.97;;;6.81;88.12
31183;BME280;17813;0.000;0.000;2023-03-20T05:27:36;99585.91;;;6.91;88.00
31183;BME280;17813;0.000;0.000;2023-03-20T05:30:03;99588.34;;;6.95;87.41
31183;BME280;17813;0.000;0.000;2023-03-20T05:32:30;99587.28;;;6.99;87.71
31183;BME280;17813;0.000;0.000;2023-03-20T05:34:57;99586.88;;;7.08;87.49
31183;BME280;17813;0.000;0.000;2023-03-20T05:37:24;99574.25;;;7.15;87.49
31183;BME280;17813;0.000;0.000;2023-03-20T05:39:52;99582.66;;;7.23;87.07
31183;BME280;17813;0.000;0.000;2023-03-20T05:42:19;99578.81;;;7.30;87.10
31183;BME280;17813;0.000;0.000;2023-03-20T05:44:46;99578.31;;;7.41;87.17
31183;BME280;17813;0.000;0.000;2023-03-20T05:47:13;99585.88;;;7.49;86.71
31183;BME280;17813;0.000;0.000;2023-03-20T05:49:40;99587.13;;;7.59;86.60
31183;BME280;17813;0.000;0.000;2023-03-20T05:52:07;99584.06;;;7.68;86.20
31183;BME280;17813;0.000;0.000;2023-03-20T05:54:33;99584.47;;;7.78;85.98
31183;BME280;17813;0.000;0.000;2023-03-20T05:57:01;99584.97;;;7.86;86.00
31183;BME280;17813;0.000;0.000;2023-03-20T05:59:28;99576.75;;;7.92;85.47
31183;BME280;17813;0.000;0.000;2023-03-20T06:01:55;99583.53;;;7.97;85.69
31183;BME280;17813;0.000;0.000;2023-03-20T06:04:22;99585.56;;;8.10;85.62
31183;BME280;17813;0.000;0.000;2023-03-20T06:06:49;99578.19;;;8.16;85.36
31183;BME280;17813;0.000;0.000;2023-03-20T06:09:16;99589.13;;;8.26;85.52
31183;BME280;17813;0.000;0.000;2023-03-20T06:11:44;99587.03;;;8.32;85.20
31183;BME280;17813;0.000;0.000;2023-03-20T06:14:12;99583.97;;;8.42;85.04
31183;BME280;17813;0.000;0.000;2023-03-20T06:16:39;99586.91;;;8.53;85.00
31183;BME280;17813;0.000;0.000;2023-03-20T06:19:07;99584.72;;;8.61;84.63
31183;BME280;17813;0.000;0.000;2023-03-20T06:21:34;99579.03;;;8.68;84.71
31183;BME280;17813;0.000;0.000;2023-03-20T06:24:01;99584.53;;;8.81;84.02
31183;BME280;17813;0.000;0.000;2023-03-20T06:26:28;99590.09;;;8.92;83.90
31183;BME280;17813;0.000;0.000;2023-03-20T06:28:56;99584.31;;;9.01;83.96
31183;BME280;17813;0.000;0.000;2023-03-20T06:31:24;99584.59;;;9.13;83.74
31183;BME280;17813;0.000;0.000;2023-03-20T06:33:51;99580.59;;;9.21;83.80
31183;BME280;17813;0.000;0.000;2023-03-20T06:36:18;99581.66;;;9.34;82.96
31183;BME280;17813;0.000;0.000;2023-03-20T06:38:45;99588.91;;;9.47;82.92
31183;BME280;17813;0.000;0.000;2023-03-20T06:41:12;99588.31;;;9.57;82.34
31183;BME280;17813;0.000;0.000;2023-03-20T06:43:39;99587.88;;;9.65;81.94
31183;BME280;17813;0.000;0.000;2023-03-20T06:46:08;99586.00;;;9.67;81.43
31183;BME280;17813;0.000;0.000;2023-03-20T06:48:36;99594.88;;;9.82;81.62
31183;BME280;17813;0.000;0.000;2023-03-20T06:51:03;99594.25;;;9.92;80.94
31183;BME280;17813;0.000;0.000;2023-03-20T06:53:30;99597.41;;;9.99;80.92
31183;BME280;17813;0.000;0.000;2023-03-20T06:55:57;99590.72;;;10.08;80.80
31183;BME280;17813;0.000;0.000;2023-03-20T06:58:27;99596.34;;;10.17;81.13
31183;BME280;17813;0.000;0.000;2023-03-20T07:00:54;99601.91;;;10.28;80.96
31183;BME280;17813;0.000;0.000;2023-03-20T07:03:20;99600.59;;;10.36;79.92
31183;BME280;17813;0.000;0.000;2023-03-20T07:05:48;99605.72;;;10.39;79.94
31183;BME280;17813;0.000;0.000;2023-03-20T07:12:04;99599.63;;;10.22;79.48
31183;BME280;17813;0.000;0.000;2023-03-20T07:14:31;99598.41;;;10.44;79.14
31183;BME280;17813;0.000;0.000;2023-03-20T07:16:58;99593.94;;;10.44;78.74
31183;BME280;17813;0.000;0.000;2023-03-20T07:19:26;99596.44;;;10.61;78.82
31183;BME280;17813;0.000;0.000;2023-03-20T07:22:05;99598.94;;;10.79;78.11
31183;BME280;17813;0.000;0.000;2023-03-20T07:24:34;99597.72;;;10.99;77.70
31183;BME280;17813;0.000;0.000;2023-03-20T07:27:10;99599.31;;;11.15;76.74
31183;BME280;17813;0.000;0.000;2023-03-20T07:29:38;99600.94;;;11.32;76.77
31183;BME280;17813;0.000;0.000;2023-03-20T07:32:05;99601.00;;;11.45;76.84
31183;BME280;17813;0.000;0.000;2023-03-20T07:34:32;99607.16;;;11.59;76.92
31183;BME280;17813;0.000;0.000;2023-03-20T07:40:07;99615.38;;;11.69;76.16
31183;BME280;17813;0.000;0.000;2023-03-20T07:42:35;99605.22;;;11.76;76.00
31183;BME280;17813;0.000;0.000;2023-03-20T07:45:03;99602.56;;;11.76;76.15
31183;BME280;17813;0.000;0.000;2023-03-20T07:47:31;99612.34;;;11.75;76.06
31183;BME280;17813;0.000;0.000;2023-03-20T07:49:58;99614.34;;;11.72;76.47
31183;BME280;17813;0.000;0.000;2023-03-20T07:52:26;99608.81;;;11.75;76.39
31183;BME280;17813;0.000;0.000;2023-03-20T07:54:53;99606.84;;;11.78;76.18
31183;BME280;17813;0.000;0.000;2023-03-20T07:57:20;99606.84;;;11.78;76.41
31183;BME280;17813;0.000;0.000;2023-03-20T07:59:47;99607.50;;;11.82;76.47
31183;BME280;17813;0.000;0.000;2023-03-20T08:02:15;99601.03;;;11.86;76.31
31183;BME280;17813;0.000;0.000;2023-03-20T08:04:43;99610.31;;;11.93;76.30
31183;BME280;17813;0.000;0.000;2023-03-20T08:07:12;99602.94;;;12.11;76.45
31183;BME280;17813;0.000;0.000;2023-03-20T08:09:39;99603.84;;;12.24;76.07
31183;BME280;17813;0.000;0.000;2023-03-20T08:12:08;99605.88;;;12.33;75.87
31183;BME280;17813;0.000;0.000;2023-03-20T08:14:35;99603.47;;;12.43;75.17
31183;BME280;17813;0.000;0.000;2023-03-20T08:17:04;99605.59;;;12.50;75.04
31183;BME280;17813;0.000;0.000;2023-03-20T08:19:32;99606.69;;;12.61;74.75
31183;BME280;17813;0.000;0.000;2023-03-20T08:21:59;99604.66;;;12.64;74.56
31183;BME280;17813;0.000;0.000;2023-03-20T08:24:27;99608.81;;;12.68;74.68
31183;BME280;17813;0.000;0.000;2023-03-20T08:26:55;99608.63;;;12.71;74.60
31183;BME280;17813;0.000;0.000;2023-03-20T08:29:22;99606.81;;;12.72;74.57
31183;BME280;17813;0.000;0.000;2023-03-20T08:31:50;99609.16;;;12.76;74.83
31183;BME280;17813;0.000;0.000;2023-03-20T08:34:17;99614.38;;;12.78;74.34
31183;BME280;17813;0.000;0.000;2023-03-20T08:36:44;99602.97;;;12.76;74.38
31183;BME280;17813;0.000;0.000;2023-03-20T08:39:13;99603.19;;;12.73;74.10
31183;BME280;17813;0.000;0.000;2023-03-20T08:41:41;99604.34;;;12.69;73.67
31183;BME280;17813;0.000;0.000;2023-03-20T08:44:12;99598.72;;;12.73;74.32
31183;BME280;17813;0.000;0.000;2023-03-20T08:46:40;99602.97;;;12.76;73.68
31183;BME280;17813;0.000;0.000;2023-03-20T08:49:09;99604.25;;;12.83;73.59
31183;BME280;17813;0.000;0.000;2023-03-20T08:51:36;99600.63;;;12.84;73.40
31183;BME280;17813;0.000;0.000;2023-03-20T08:54:03;99603.75;;;13.03;73.01
31183;BME280;17813;0.000;0.000;2023-03-20T08:56:29;99609.41;;;13.24;72.18
31183;BME280;17813;0.000;0.000;2023-03-20T08:58:57;99603.63;;;13.56;71.74
31183;BME280;17813;0.000;0.000;2023-03-20T09:01:23;99605.28;;;13.69;70.68
31183;BME280;17813;0.000;0.000;2023-03-20T09:03:50;99605.13;;;13.83;69.72
31183;BME280;17813;0.000;0.000;2023-03-20T09:06:18;99611.31;;;13.84;68.98
31183;BME280;17813;0.000;0.000;2023-03-20T09:08:45;99604.56;;;13.91;69.07
31183;BME280;17813;0.000;0.000;2023-03-20T09:11:12;99603.97;;;13.75;68.12
31183;BME280;17813;0.000;0.000;2023-03-20T09:13:39;99607.19;;;14.04;68.38
31183;BME280;17813;0.000;0.000;2023-03-20T09:16:06;99612.28;;;14.07;69.04
31183;BME280;17813;0.000;0.000;2023-03-20T09:18:36;99607.56;;;14.10;69.00
31183;BME280;17813;0.000;0.000;2023-03-20T09:21:03;99610.47;;;14.31;69.42
31183;BME280;17813;0.000;0.000;2023-03-20T09:23:31;99607.75;;;14.44;68.91
31183;BME280;17813;0.000;0.000;2023-03-20T09:25:59;99615.78;;;14.55;67.84
31183;BME280;17813;0.000;0.000;2023-03-20T09:28:28;99616.22;;;14.73;68.71
31183;BME280;17813;0.000;0.000;2023-03-20T09:30:56;99613.91;;;14.79;67.16
31183;BME280;17813;0.000;0.000;2023-03-20T09:33:24;99609.06;;;14.85;67.33
31183;BME280;17813;0.000;0.000;2023-03-20T09:35:51;99615.16;;;14.87;66.79
31183;BME280;17813;0.000;0.000;2023-03-20T09:38:20;99615.25;;;14.85;66.56
31183;BME280;17813;0.000;0.000;2023-03-20T09:41:00;99608.34;;;14.83;66.24
31183;BME280;17813;0.000;0.000;2023-03-20T09:51:58;99617.38;;;15.37;65.38
31183;BME280;17813;0.000;0.000;2023-03-20T09:54:41;99614.47;;;15.52;65.47
31183;BME280;17813;0.000;0.000;2023-03-20T09:57:40;99607.69;;;15.59;65.48
31183;BME280;17813;0.000;0.000;2023-03-20T10:00:28;99604.06;;;15.71;64.32
31183;BME280;17813;0.000;0.000;2023-03-20T10:03:03;99610.63;;;15.67;63.57
31183;BME280;17813;0.000;0.000;2023-03-20T10:08:37;99608.19;;;15.75;64.14
31183;BME280;17813;0.000;0.000;2023-03-20T10:22:17;99615.81;;;15.35;62.42
31183;BME280;17813;0.000;0.000;2023-03-20T10:27:59;99610.34;;;15.25;63.44
31183;BME280;17813;0.000;0.000;2023-03-20T10:30:49;99602.81;;;15.19;63.40
31183;BME280;17813;0.000;0.000;2023-03-20T10:38:49;99597.34;;;15.54;62.04
31183;BME280;17813;0.000;0.000;2023-03-20T10:41:24;99603.09;;;15.61;62.12
31183;BME280;17813;0.000;0.000;2023-03-20T10:43:56;99589.81;;;15.82;62.00
31183;BME280;17813;0.000;0.000;2023-03-20T10:46:34;99588.75;;;16.16;62.07
31183;BME280;17813;0.000;0.000;2023-03-20T10:49:18;99598.66;;;16.57;60.46
31183;BME280;17813;0.000;0.000;2023-03-20T10:52:03;99580.00;;;16.88;59.67
31183;BME280;17813;0.000;0.000;2023-03-20T10:54:40;99579.63;;;17.23;59.05
31183;BME280;17813;0.000;0.000;2023-03-20T10:57:25;99579.22;;;17.27;57.04
31183;BME280;17813;0.000;0.000;2023-03-20T10:59:57;99579.81;;;17.41;57.28
31183;BME280;17813;0.000;0.000;2023-03-20T11:02:28;99579.69;;;17.42;58.49
31183;BME280;17813;0.000;0.000;2023-03-20T11:05:00;99593.38;;;17.09;57.63
31183;BME280;17813;0.000;0.000;2023-03-20T11:07:33;99587.59;;;16.83;58.47
31183;BME280;17813;0.000;0.000;2023-03-20T11:12:37;99582.63;;;16.78;59.44
31183;BME280;17813;0.000;0.000;2023-03-20T11:18:01;99582.31;;;16.60;57.66
31183;BME280;17813;0.000;0.000;2023-03-20T11:20:36;99611.53;;;16.63;58.05
31183;BME280;17813;0.000;0.000;2023-03-20T11:23:05;99588.78;;;16.37;58.68
31183;BME280;17813;0.000;0.000;2023-03-20T11:25:49;99585.50;;;16.33;58.67
31183;BME280;17813;0.000;0.000;2023-03-20T11:33:33;99587.13;;;15.93;59.12
31183;BME280;17813;0.000;0.000;2023-03-20T11:36:10;99588.00;;;15.82;59.66
31183;BME280;17813;0.000;0.000;2023-03-20T11:38:45;99590.91;;;15.79;60.32
31183;BME280;17813;0.000;0.000;2023-03-20T11:41:24;99597.47;;;15.86;60.16
31183;BME280;17813;0.000;0.000;2023-03-20T11:43:51;99593.91;;;15.97;60.57
31183;BME280;17813;0.000;0.000;2023-03-20T11:46:23;99589.47;;;15.75;60.09
31183;BME280;17813;0.000;0.000;2023-03-20T11:49:20;99590.78;;;15.81;60.41
31183;BME280;17813;0.000;0.000;2023-03-20T11:51:50;99587.13;;;15.82;60.42
31183;BME280;17813;0.000;0.000;2023-03-20T11:54:23;99586.44;;;15.68;60.78
31183;BME280;17813;0.000;0.000;2023-03-20T11:56:59;99579.03;;;15.72;60.59
31183;BME280;17813;0.000;0.000;2023-03-20T11:59:36;99581.06;;;15.46;59.69
31183;BME280;17813;0.000;0.000;2023-03-20T12:02:15;99574.50;;;15.39;60.51
31183;BME280;17813;0.000;0.000;2023-03-20T12:04:46;99567.34;;;15.28;60.79
31183;BME280;17813;0.000;0.000;2023-03-20T12:07:23;99567.09;;;15.20;61.11
31183;BME280;17813;0.000;0.000;2023-03-20T12:10:05;99565.88;;;15.02;61.63
31183;BME280;17813;0.000;0.000;2023-03-20T12:12:53;99566.34;;;14.85;61.11
31183;BME280;17813;0.000;0.000;2023-03-20T12:15:47;99569.75;;;14.75;61.43
31183;BME280;17813;0.000;0.000;2023-03-20T12:18:30;99565.22;;;14.54;61.53
31183;BME280;17813;0.000;0.000;2023-03-20T12:21:32;99576.13;;;14.27;61.69
31183;BME280;17813;0.000;0.000;2023-03-20T12:24:08;99575.34;;;14.13;62.79
31183;BME280;17813;0.000;0.000;2023-03-20T12:32:57;99610.81;;;14.03;64.77
31183;BME280;17813;0.000;0.000;2023-03-20T12:35:31;99584.44;;;13.87;65.79
31183;BME280;17813;0.000;0.000;2023-03-20T12:38:02;99586.09;;;13.64;66.29
31183;BME280;17813;0.000;0.000;2023-03-20T12:40:41;99581.53;;;13.66;66.00
31183;BME280;17813;0.000;0.000;2023-03-20T12:43:20;99574.16;;;13.70;66.60
31183;BME280;17813;0.000;0.000;2023-03-20T12:57:04;99564.47;;;13.93;68.07
31183;BME280;17813;0.000;0.000;2023-03-20T13:02:53;99554.00;;;13.66;69.24
31183;BME280;17813;0.000;0.000;2023-03-20T13:08:37;99555.75;;;13.54;69.48
31183;BME280;17813;0.000;0.000;2023-03-20T13:11:29;99547.28;;;13.36;71.34
31183;BME280;17813;0.000;0.000;2023-03-20T13:22:47;99544.28;;;13.41;71.37
31183;BME280;17813;0.000;0.000;2023-03-20T13:31:08;99542.78;;;13.73;70.92
31183;BME280;17813;0.000;0.000;2023-03-20T13:39:32;99547.84;;;13.65;72.20
31183;BME280;17813;0.000;0.000;2023-03-20T13:41:44;99540.59;;;13.67;72.05
31183;BME280;17813;0.000;0.000;2023-03-20T13:44:17;99531.28;;;13.73;71.81
31183;BME280;17813;0.000;0.000;2023-03-20T13:47:18;99528.38;;;13.76;71.54
31183;BME280;17813;0.000;0.000;2023-03-20T13:53:02;99541.88;;;13.62;71.72
31183;BME280;17813;0.000;0.000;2023-03-20T13:55:38;99538.06;;;13.53;71.97
31183;BME280;17813;0.000;0.000;2023-03-20T14:03:18;99529.41;;;13.26;72.43
31183;BME280;17813;0.000;0.000;2023-03-20T14:05:48;99529.31;;;13.27;72.57
31183;BME280;17813;0.000;0.000;2023-03-20T14:13:56;99526.00;;;13.11;72.44
31183;BME280;17813;0.000;0.000;2023-03-20T14:16:27;99521.53;;;13.11;72.09
31183;BME280;17813;0.000;0.000;2023-03-20T14:19:17;99515.56;;;13.08;72.32
31183;BME280;17813;0.000;0.000;2023-03-20T14:21:47;99514.50;;;13.10;72.37
31183;BME280;17813;0.000;0.000;2023-03-20T14:24:18;99521.66;;;13.10;72.50
31183;BME280;17813;0.000;0.000;2023-03-20T14:26:54;99514.63;;;13.09;72.52
31183;BME280;17813;0.000;0.000;2023-03-20T14:29:34;99521.00;;;13.06;72.43
31183;BME280;17813;0.000;0.000;2023-03-20T14:34:53;99514.72;;;13.07;72.96
31183;BME280;17813;0.000;0.000;2023-03-20T14:37:44;99516.53;;;13.07;73.08
31183;BME280;17813;0.000;0.000;2023-03-20T14:40:23;99513.13;;;13.05;73.25
31183;BME280;17813;0.000;0.000;2023-03-20T14:42:54;99508.31;;;13.10;72.81
31183;BME280;17813;0.000;0.000;2023-03-20T14:45:36;99500.88;;;13.15;72.90
31183;BME280;17813;0.000;0.000;2023-03-20T14:48:36;99504.50;;;13.01;72.88
31183;BME280;17813;0.000;0.000;2023-03-20T14:56:50;99499.78;;;13.30;72.27
31183;BME280;17813;0.000;0.000;2023-03-20T14:59:20;99497.94;;;13.43;72.54
31183;BME280;17813;0.000;0.000;2023-03-20T15:01:58;99498.22;;;13.51;72.20
31183;BME280;17813;0.000;0.000;2023-03-20T15:04:30;99503.94;;;13.58;72.27
31183;BME280;17813;0.000;0.000;2023-03-20T15:07:00;99497.03;;;13.56;71.79
31183;BME280;17813;0.000;0.000;2023-03-20T15:09:35;99493.47;;;13.44;72.04
31183;BME280;17813;0.000;0.000;2023-03-20T15:12:04;99491.56;;;13.33;72.91
31183;BME280;17813;0.000;0.000;2023-03-20T15:14:39;99490.97;;;13.17;74.27
31183;BME280;17813;0.000;0.000;2023-03-20T15:17:20;99485.53;;;12.93;75.20
31183;BME280;17813;0.000;0.000;2023-03-20T15:19:47;99490.56;;;12.72;76.33
31183;BME280;17813;0.000;0.000;2023-03-20T15:22:17;99486.22;;;12.71;76.32
31183;BME280;17813;0.000;0.000;2023-03-20T15:24:54;99487.06;;;12.59;76.75
31183;BME280;17813;0.000;0.000;2023-03-20T15:27:25;99487.19;;;12.45;77.15
31183;BME280;17813;0.000;0.000;2023-03-20T15:29:57;99483.44;;;12.47;77.14
31183;BME280;17813;0.000;0.000;2023-03-20T15:32:28;99486.66;;;12.40;76.97
31183;BME280;17813;0.000;0.000;2023-03-20T15:34:55;99488.56;;;12.38;77.04
31183;BME280;17813;0.000;0.000;2023-03-20T15:37:23;99481.09;;;12.30;77.42
31183;BME280;17813;0.000;0.000;2023-03-20T15:39:53;99487.59;;;12.26;77.47
31183;BME280;17813;0.000;0.000;2023-03-20T15:42:25;99479.81;;;12.23;77.72
31183;BME280;17813;0.000;0.000;2023-03-20T15:44:54;99475.69;;;12.19;77.83
31183;BME280;17813;0.000;0.000;2023-03-20T15:47:23;99475.25;;;12.12;77.97
31183;BME280;17813;0.000;0.000;2023-03-20T15:49:56;99482.56;;;12.09;78.55
31183;BME280;17813;0.000;0.000;2023-03-20T15:52:41;99479.38;;;12.04;78.37
31183;BME280;17813;0.000;0.000;2023-03-20T15:55:16;99477.56;;;12.04;78.74
31183;BME280;17813;0.000;0.000;2023-03-20T15:57:47;99491.28;;;12.11;78.36
31183;BME280;17813;0.000;0.000;2023-03-20T16:00:28;99492.25;;;12.10;78.53
31183;BME280;17813;0.000;0.000;2023-03-20T16:02:58;99483.97;;;12.14;78.39